Time;durP1;ratioP1;P1;durP2;ratioP2;P2;SDS_P1;SDS_P2;PMS_P1;PMS_P2;Temp;Humidity;BMP_temperature;BMP_pressure;BME280_temperature;BME280_humidity;BME280_pressure;Samples;Min_cycle;Max_cycle;Signal;HPM_P1;HPM_P2
2021/06/11 00:00:00;;;;;;;9.13;7.22;;;;;;;13.90;78.61;97581.72;1637922;86;21436;-74
2021/06/11 00:02:28;;;;;;;11.10;7.03;;;;;;;13.92;78.73;97581.64;1638478;87;21155;-74
2021/06/11 00:04:54;;;;;;;7.50;6.55;;;;;;;13.91;78.75;97581.25;1639353;87;20999;-74
2021/06/11 00:07:21;;;;;;;8.15;7.08;;;;;;;13.93;78.33;97584.69;1658768;86;21463;-74
2021/06/11 00:09:47;;;;;;;8.90;7.25;;;;;;;13.94;78.17;97585.95;1660483;85;20957;-74
2021/06/11 00:12:14;;;;;;;10.60;7.10;;;;;;;13.93;77.86;97584.69;1637182;86;21042;-73
2021/06/11 00:14:42;;;;;;;10.13;7.03;;;;;;;13.89;77.62;97587.98;1661633;86;21391;-74
2021/06/11 00:17:10;;;;;;;9.30;7.20;;;;;;;13.87;77.36;97584.52;1661286;86;21396;-74
2021/06/11 00:19:40;;;;;;;10.00;6.80;;;;;;;13.83;77.15;97581.15;1666796;85;20943;-73
2021/06/11 00:22:07;;;;;;;8.40;7.28;;;;;;;13.80;78.21;97576.45;1689008;84;21067;-74
2021/06/11 00:24:33;;;;;;;8.55;7.55;;;;;;;13.79;78.42;97575.58;1659948;85;20992;-74
2021/06/11 00:27:00;;;;;;;10.15;8.20;;;;;;;13.73;78.86;97566.56;1665107;85;21439;-73
2021/06/11 00:29:26;;;;;;;9.73;7.62;;;;;;;13.59;80.65;97562.77;1667397;85;21013;-74
2021/06/11 00:31:53;;;;;;;8.65;7.53;;;;;;;13.52;79.42;97565.81;1674444;85;20994;-73
2021/06/11 00:34:19;;;;;;;11.43;7.60;;;;;;;13.45;78.85;97566.09;1657804;86;21414;-73
2021/06/11 00:36:46;;;;;;;9.63;7.40;;;;;;;13.41;80.09;97558.34;1658594;86;21021;-73
2021/06/11 00:39:12;;;;;;;9.75;8.18;;;;;;;13.38;80.99;97559.35;1657344;86;21017;-74
2021/06/11 00:41:39;;;;;;;8.90;7.00;;;;;;;13.36;79.91;97551.05;1659525;85;20976;-74
2021/06/11 00:44:07;;;;;;;9.25;7.65;;;;;;;13.36;79.44;97554.55;1658174;86;21423;-73
2021/06/11 00:46:33;;;;;;;13.35;7.78;;;;;;;13.36;78.51;97553.70;1658540;86;21406;-73
2021/06/11 00:49:00;;;;;;;8.88;7.97;;;;;;;13.28;81.83;97556.70;1658619;86;20984;-74
2021/06/11 00:51:27;;;;;;;12.82;8.03;;;;;;;13.27;79.21;97553.20;1656779;85;21058;-74
2021/06/11 00:53:56;;;;;;;9.90;7.58;;;;;;;13.28;78.75;97546.06;1658468;86;21019;-73
2021/06/11 00:56:23;;;;;;;10.23;7.20;;;;;;;13.25;81.88;97551.06;1658809;86;21390;-73
2021/06/11 00:58:50;;;;;;;9.28;8.00;;;;;;;13.25;80.99;97544.41;1659402;85;20957;-73
2021/06/11 01:01:16;;;;;;;7.83;7.12;;;;;;;13.22;79.84;97551.69;1658924;86;21091;-74
2021/06/11 01:03:43;;;;;;;10.15;7.37;;;;;;;13.15;80.81;97554.64;1659160;86;21001;-73
2021/06/11 01:06:12;;;;;;;9.90;7.90;;;;;;;13.13;81.19;97559.64;1658961;86;21056;-73
2021/06/11 01:08:41;;;;;;;8.78;7.58;;;;;;;13.07;81.22;97556.34;1668884;85;21006;-74
2021/06/11 01:11:09;;;;;;;9.50;7.60;;;;;;;13.06;80.20;97550.62;1686689;85;21062;-74
2021/06/11 01:13:37;;;;;;;9.63;7.75;;;;;;;13.09;79.67;97547.41;1686559;85;21345;-74
2021/06/11 01:16:04;;;;;;;11.95;8.18;;;;;;;13.11;79.38;97550.85;1666658;85;20993;-74
2021/06/11 01:18:31;;;;;;;8.75;7.85;;;;;;;13.10;79.31;97540.70;1659424;85;20976;-74
2021/06/11 01:20:58;;;;;;;10.45;7.58;;;;;;;13.10;79.60;97551.34;1658982;86;21049;-74
2021/06/11 01:23:59;;;;;;;11.93;8.05;;;;;;;13.08;79.16;97549.20;1658988;86;21005;-74
2021/06/11 01:26:32;;;;;;;8.20;7.40;;;;;;;13.06;79.60;97549.75;1658601;86;21057;-74
2021/06/11 01:29:06;;;;;;;10.63;7.22;;;;;;;13.02;80.87;97538.41;1672382;85;20927;-74
2021/06/11 01:31:36;;;;;;;;;;;;;;;13.00;79.67;97543.40;1689234;84;21415;-74
2021/06/11 01:34:15;;;;;;;9.50;6.90;;;;;;;12.99;80.12;97547.00;1686515;85;20112;-74
2021/06/11 01:36:50;;;;;;;7.55;6.75;;;;;;;12.92;80.87;97547.26;1686708;85;21027;-73
2021/06/11 01:39:19;;;;;;;7.80;6.97;;;;;;;12.90;80.57;97546.48;1668998;85;21534;-74
2021/06/11 01:41:47;;;;;;;7.60;6.80;;;;;;;12.92;80.75;97547.75;1657899;86;21032;-74
2021/06/11 01:44:15;;;;;;;9.23;6.92;;;;;;;12.91;80.63;97546.87;1658461;86;21015;-74
2021/06/11 01:46:45;;;;;;;8.58;6.75;;;;;;;12.92;81.49;97548.59;1657511;87;21009;-74
2021/06/11 01:49:14;;;;;;;8.00;6.37;;;;;;;12.94;81.18;97545.86;1673194;85;21006;-74
2021/06/11 01:51:42;;;;;;;7.47;6.22;;;;;;;12.98;81.95;97549.23;1664894;85;21010;-74
2021/06/11 01:54:13;;;;;;;8.23;5.90;;;;;;;12.98;82.00;97550.57;1686636;85;21420;-73
2021/06/11 01:56:42;;;;;;;7.22;6.53;;;;;;;13.04;81.16;97549.82;1686593;84;20990;-74
2021/06/11 01:59:09;;;;;;;8.08;5.97;;;;;;;13.06;81.17;97550.62;1674895;85;21078;-73
2021/06/11 02:01:37;;;;;;;8.15;5.78;;;;;;;13.07;80.92;97543.03;1658943;86;21044;-74
2021/06/11 02:04:05;;;;;;;6.97;6.28;;;;;;;13.12;80.47;97541.47;1658975;86;21027;-74
2021/06/11 02:06:32;;;;;;;7.42;6.20;;;;;;;13.14;80.39;97534.30;1658014;86;20995;-74
2021/06/11 02:08:59;;;;;;;7.92;6.05;;;;;;;13.21;80.21;97541.53;1659395;85;21086;-74
2021/06/11 02:11:27;;;;;;;7.15;6.45;;;;;;;13.24;79.86;97541.84;1637950;86;21081;-73
2021/06/11 02:13:55;;;;;;;7.95;6.30;;;;;;;13.19;80.05;97546.92;1658951;86;20973;-74
2021/06/11 02:16:25;;;;;;;10.32;6.92;;;;;;;13.09;80.56;97546.96;1658970;86;21090;-74
2021/06/11 02:18:53;;;;;;;11.08;7.62;;;;;;;12.96;80.94;97549.79;1684893;85;20967;-74
2021/06/11 02:21:20;;;;;;;7.97;7.15;;;;;;;12.82;81.35;97551.77;1686604;84;20991;-74
2021/06/11 02:23:47;;;;;;;9.05;7.20;;;;;;;12.64;81.98;97554.32;1686605;84;20987;-74
2021/06/11 02:26:15;;;;;;;9.40;7.10;;;;;;;12.49;82.12;97550.09;1686740;84;21050;-74
2021/06/11 02:28:41;;;;;;;10.60;7.92;;;;;;;12.41;81.60;97548.22;1663077;84;21037;-73
2021/06/11 02:31:09;;;;;;;8.15;7.17;;;;;;;12.35;82.03;97552.48;1657266;86;21001;-74
2021/06/11 02:33:36;;;;;;;9.63;7.30;;;;;;;12.31;82.51;97560.19;1656428;86;21434;-73
2021/06/11 02:36:03;;;;;;;11.65;7.65;;;;;;;12.24;83.27;97552.50;1657090;87;21026;-73
2021/06/11 02:38:30;;;;;;;8.50;7.17;;;;;;;12.22;83.14;97562.34;1679134;85;21007;-75
2021/06/11 02:40:59;;;;;;;8.83;7.00;;;;;;;12.21;82.11;97563.73;1686194;85;21544;-74
2021/06/11 02:43:27;;;;;;;8.95;7.37;;;;;;;12.22;81.50;97569.44;1686159;85;20947;-74
2021/06/11 02:45:59;;;;;;;9.88;7.22;;;;;;;12.24;81.83;97567.11;1685968;85;20990;-74
2021/06/11 02:48:37;;;;;;;10.30;7.70;;;;;;;12.27;82.26;97568.77;1665969;84;20970;-73
2021/06/11 02:51:36;;;;;;;12.45;7.75;;;;;;;12.28;81.41;97563.84;1655452;87;21014;-73
2021/06/11 02:54:06;;;;;;;8.45;7.55;;;;;;;12.25;81.69;97568.83;1658464;86;21383;-74
2021/06/11 02:56:40;;;;;;;9.20;7.22;;;;;;;12.22;80.93;97562.80;1656289;86;21029;-74
2021/06/11 02:59:18;;;;;;;9.90;7.72;;;;;;;12.18;82.38;97559.41;1659941;85;20999;-73
2021/06/11 03:01:50;;;;;;;9.23;7.35;;;;;;;12.14;81.64;97559.98;1657760;85;21368;-74
2021/06/11 03:04:18;;;;;;;11.97;9.35;;;;;;;12.09;81.25;97561.14;1635918;86;21012;-73
2021/06/11 03:06:48;;;;;;;10.60;7.75;;;;;;;12.07;81.60;97566.95;1658387;85;21008;-73
2021/06/11 03:09:20;;;;;;;9.95;7.75;;;;;;;12.07;81.66;97570.94;1631726;88;21013;-73
2021/06/11 03:11:45;;;;;;;8.63;7.20;;;;;;;12.08;82.91;97566.05;1609706;88;21430;-73
2021/06/11 03:14:13;;;;;;;10.15;7.65;;;;;;;12.05;84.49;97562.19;1609428;88;21009;-73
2021/06/11 03:16:47;;;;;;;8.28;7.20;;;;;;;12.03;84.38;97561.37;1631631;88;21422;-73
2021/06/11 03:19:18;;;;;;;8.88;7.50;;;;;;;12.01;85.10;97566.27;1631659;88;21398;-73
2021/06/11 03:21:51;;;;;;;10.38;7.30;;;;;;;12.05;84.54;97563.06;1657265;85;21416;-73
2021/06/11 03:24:47;;;;;;;9.10;6.75;;;;;;;12.10;83.58;97563.73;1657669;86;21427;-73
2021/06/11 03:27:28;;;;;;;13.10;7.12;;;;;;;12.17;84.00;97566.99;1662237;85;21428;-73
2021/06/11 03:30:06;;;;;;;10.55;7.00;;;;;;;12.24;83.89;97568.44;1686195;85;20986;-73
2021/06/11 03:32:56;;;;;;;8.05;6.50;;;;;;;12.28;83.35;97568.71;1691477;84;20983;-74
2021/06/11 03:35:30;;;;;;;13.45;6.70;;;;;;;12.34;83.26;97570.70;1704043;83;21021;-74
2021/06/11 03:37:59;;;;;;;7.83;6.58;;;;;;;12.40;83.49;97569.09;1678134;83;21050;-74
2021/06/11 03:40:31;;;;;;;10.03;6.97;;;;;;;12.50;82.88;97575.73;1673903;86;21597;-72
2021/06/11 03:42:59;;;;;;;8.95;6.22;;;;;;;12.57;82.51;97571.00;1699451;83;21381;-73
2021/06/11 03:45:26;;;;;;;10.13;6.28;;;;;;;12.65;82.54;97574.65;1676355;85;20953;-73
2021/06/11 03:47:55;;;;;;;7.72;6.00;;;;;;;12.73;82.17;97573.84;1666509;85;21019;-72
2021/06/11 03:50:25;;;;;;;6.87;6.00;;;;;;;12.78;82.20;97574.50;1666417;86;21027;-73
2021/06/11 03:52:56;;;;;;;7.95;6.30;;;;;;;12.86;81.87;97573.27;1666442;86;21008;-74
2021/06/11 03:55:29;;;;;;;8.38;6.10;;;;;;;12.93;81.39;97576.06;1661661;86;20970;-74
2021/06/11 03:58:01;;;;;;;9.98;6.17;;;;;;;13.02;80.94;97578.30;1698055;84;20991;-73
2021/06/11 04:00:30;;;;;;;6.87;5.87;;;;;;;13.06;80.43;97579.89;1689338;85;21515;-74
2021/06/11 04:02:58;;;;;;;12.90;6.83;;;;;;;13.11;80.46;97584.11;1669751;86;21458;-73
2021/06/11 04:05:24;;;;;;;8.43;6.30;;;;;;;13.13;80.22;97581.80;1648542;86;21416;-73
2021/06/11 04:07:57;;;;;;;10.03;6.58;;;;;;;13.12;79.80;97583.20;1691414;84;20969;-74
2021/06/11 04:10:40;;;;;;;8.13;6.85;;;;;;;13.11;80.00;97588.97;1691316;84;21045;-73
2021/06/11 04:13:22;;;;;;;10.88;7.15;;;;;;;13.13;79.95;97590.23;1698189;84;21004;-73
2021/06/11 04:15:51;;;;;;;7.53;6.40;;;;;;;13.14;79.83;97578.20;1643787;87;21041;-73
2021/06/11 04:18:28;;;;;;;11.03;7.08;;;;;;;13.17;80.20;97594.48;1678887;84;21041;-74
2021/06/11 04:20:59;;;;;;;8.85;6.80;;;;;;;13.19;80.01;97589.94;1634315;87;21085;-74
2021/06/11 04:23:30;;;;;;;8.10;7.10;;;;;;;13.21;80.02;97582.77;1677009;84;20994;-74
2021/06/11 04:26:00;;;;;;;11.50;7.50;;;;;;;13.24;79.56;97585.75;1641951;87;21058;-73
2021/06/11 04:28:33;;;;;;;9.00;7.58;;;;;;;13.27;79.57;97588.25;1697784;84;20942;-74
2021/06/11 04:31:00;;;;;;;8.90;6.85;;;;;;;13.29;79.69;97580.59;1699104;84;21055;-74
2021/06/11 04:33:29;;;;;;;10.58;7.33;;;;;;;13.38;79.42;97583.76;1716980;83;21004;-74
2021/06/11 04:35:57;;;;;;;10.70;7.90;;;;;;;13.43;78.81;97585.27;1713838;83;21039;-74
2021/06/11 04:38:26;;;;;;;11.35;6.92;;;;;;;13.51;78.65;97586.73;1691144;84;21438;-74
2021/06/11 04:40:53;;;;;;;29.12;20.97;;;;;;;13.58;78.85;97582.84;1714390;83;21060;-74
2021/06/11 04:43:24;;;;;;;10.85;8.28;;;;;;;13.65;78.69;97585.59;1714476;83;21370;-74
2021/06/11 04:45:52;;;;;;;9.00;6.75;;;;;;;13.73;78.45;97588.75;1713717;84;21012;-74
2021/06/11 04:48:18;;;;;;;11.63;6.17;;;;;;;13.82;78.20;97590.55;1738006;82;20926;-74
2021/06/11 04:50:45;;;;;;;10.10;7.20;;;;;;;13.88;78.24;97598.25;1714301;83;21016;-74
2021/06/11 04:53:11;;;;;;;8.90;6.20;;;;;;;13.95;77.87;97592.16;1715442;82;20984;-74
2021/06/11 04:55:38;;;;;;;7.20;6.03;;;;;;;14.02;77.57;97592.69;1719756;82;21063;-74
2021/06/11 04:58:04;;;;;;;9.33;6.58;;;;;;;14.10;77.53;97590.51;1738128;82;20945;-74
2021/06/11 05:00:31;;;;;;;8.30;6.62;;;;;;;14.17;77.28;97585.27;1744102;82;21016;-73
2021/06/11 05:02:57;;;;;;;7.22;6.20;;;;;;;14.23;77.22;97582.75;1744090;82;21076;-74
2021/06/11 05:05:24;;;;;;;7.62;6.58;;;;;;;14.30;76.73;97586.84;1739734;82;21337;-74
2021/06/11 05:07:50;;;;;;;10.50;6.08;;;;;;;14.38;76.49;97587.28;1714586;82;21004;-73
2021/06/11 05:10:17;;;;;;;8.18;5.87;;;;;;;14.46;76.26;97587.38;1696677;83;21000;-74
2021/06/11 05:12:43;;;;;;;7.75;5.85;;;;;;;14.54;76.19;97593.17;1694006;83;20997;-74
2021/06/11 05:15:12;;;;;;;7.62;6.12;;;;;;;14.64;75.85;97589.54;1714404;83;20993;-74
2021/06/11 05:17:38;;;;;;;6.67;5.70;;;;;;;14.73;76.43;97582.39;1707389;82;20977;-74
2021/06/11 05:20:07;;;;;;;6.78;5.95;;;;;;;14.86;76.36;97585.78;1714563;83;20985;-74
2021/06/11 05:22:33;;;;;;;10.80;5.92;;;;;;;14.99;75.73;97593.98;1714375;83;21160;-74
2021/06/11 05:25:01;;;;;;;10.75;5.45;;;;;;;15.11;75.63;97587.95;1714438;83;20949;-74
2021/06/11 05:27:27;;;;;;;7.80;5.53;;;;;;;15.23;75.24;97589.58;1728750;82;21083;-74
2021/06/11 05:29:54;;;;;;;6.35;5.35;;;;;;;15.37;75.17;97585.64;1741461;82;21032;-74
2021/06/11 05:32:20;;;;;;;8.50;5.20;;;;;;;15.50;75.42;97588.52;1714074;82;21001;-75
2021/06/11 05:34:47;;;;;;;5.70;4.95;;;;;;;15.65;75.16;97597.95;1714157;83;21004;-75
2021/06/11 05:37:13;;;;;;;7.80;5.50;;;;;;;15.78;74.97;97601.62;1720075;82;20989;-75
2021/06/11 05:39:40;;;;;;;7.53;5.25;;;;;;;15.89;74.22;97605.48;1714057;82;20965;-75
2021/06/11 05:42:07;;;;;;;5.67;4.80;;;;;;;15.99;72.35;97605.86;1714036;84;21075;-74
2021/06/11 05:44:34;;;;;;;5.47;4.90;;;;;;;16.08;72.90;97601.31;1719687;82;21032;-75
2021/06/11 05:47:00;;;;;;;8.78;5.78;;;;;;;16.18;72.82;97601.16;1720753;82;20976;-76
2021/06/11 05:49:27;;;;;;;6.78;5.47;;;;;;;16.31;71.99;97601.75;1723163;82;21418;-76
2021/06/11 05:51:53;;;;;;;10.38;5.58;;;;;;;16.41;71.05;97600.73;1713958;83;21079;-76
2021/06/11 05:54:20;;;;;;;10.58;5.72;;;;;;;16.54;70.74;97606.20;1716586;84;21044;-74
2021/06/11 05:56:46;;;;;;;8.18;5.70;;;;;;;16.68;70.29;97610.25;1721953;82;21773;-74
2021/06/11 05:59:13;;;;;;;11.57;5.25;;;;;;;16.83;70.23;97611.14;1727711;82;20993;-74
2021/06/11 06:01:39;;;;;;;7.97;5.20;;;;;;;16.93;67.91;97613.25;1714149;84;21046;-74
2021/06/11 06:04:07;;;;;;;7.25;5.10;;;;;;;16.94;67.45;97613.13;1715524;84;21041;-74
2021/06/11 06:06:34;;;;;;;9.53;5.20;;;;;;;16.99;67.54;97604.34;1719249;82;21059;-74
2021/06/11 06:09:00;;;;;;;6.97;5.62;;;;;;;17.08;67.37;97604.30;1719995;82;21000;-74
2021/06/11 06:11:28;;;;;;;5.58;5.03;;;;;;;17.17;67.15;97609.54;1714073;84;21013;-74
2021/06/11 06:13:55;;;;;;;6.12;4.67;;;;;;;17.27;67.61;97605.32;1714431;83;20962;-74
2021/06/11 06:16:22;;;;;;;11.00;4.78;;;;;;;17.43;68.11;97605.67;1714898;82;21012;-74
2021/06/11 06:18:48;;;;;;;13.03;5.62;;;;;;;17.59;66.73;97606.02;1714036;83;20993;-76
2021/06/11 06:21:15;;;;;;;5.85;4.90;;;;;;;17.72;67.34;97615.00;1699217;84;21008;-75
2021/06/11 06:23:41;;;;;;;6.55;4.50;;;;;;;17.88;67.45;97606.81;1699829;84;21012;-76
2021/06/11 06:26:08;;;;;;;6.20;4.85;;;;;;;18.05;67.38;97607.51;1713234;82;21591;-76
2021/06/11 06:28:35;;;;;;;5.80;4.45;;;;;;;18.20;64.98;97605.67;1714359;82;20941;-77
2021/06/11 06:31:02;;;;;;;6.08;4.60;;;;;;;18.33;64.79;97607.03;1714159;83;21024;-76
2021/06/11 06:33:28;;;;;;;6.15;4.80;;;;;;;18.42;65.61;97601.05;1714473;83;21063;-75
2021/06/11 06:35:55;;;;;;;7.10;4.75;;;;;;;18.54;65.12;97593.98;1678972;85;20957;-75
2021/06/11 06:38:24;;;;;;;6.05;5.25;;;;;;;18.66;64.01;97598.12;1669333;85;21030;-74
2021/06/11 06:40:57;;;;;;;10.55;8.28;;;;;;;18.73;63.63;97606.14;1661395;86;21054;-74
2021/06/11 06:43:18;;;;;;;9.18;5.70;;;;;;;18.88;63.74;97601.50;1660413;86;21053;-73
2021/06/11 06:45:45;;;;;;;6.37;4.70;;;;;;;19.00;62.88;97602.00;1678732;85;20935;-74
2021/06/11 06:48:16;;;;;;;5.75;5.15;;;;;;;19.13;63.03;97602.02;1693971;84;21045;-74
2021/06/11 06:50:47;;;;;;;5.10;4.60;;;;;;;19.17;62.26;97599.09;1672477;85;21040;-75
2021/06/11 06:53:14;;;;;;;7.05;4.10;;;;;;;19.26;63.03;97599.78;1662147;86;21071;-79
2021/06/11 06:55:41;;;;;;;4.72;4.00;;;;;;;19.34;61.96;97597.88;1673386;85;22185;-78
2021/06/11 06:58:07;;;;;;;4.33;3.90;;;;;;;19.36;60.63;97594.62;1685999;84;21069;-76
2021/06/11 07:00:34;;;;;;;5.72;4.28;;;;;;;19.42;60.83;97596.02;1678624;85;21069;-76
2021/06/11 07:03:01;;;;;;;5.45;4.70;;;;;;;19.43;60.19;97595.88;1658596;86;21521;-75
2021/06/11 07:05:28;;;;;;;7.25;4.10;;;;;;;19.48;60.78;97592.87;1661802;85;20993;-75
2021/06/11 07:07:54;;;;;;;5.33;4.17;;;;;;;19.52;60.79;97588.49;1658992;85;21068;-76
2021/06/11 07:10:22;;;;;;;9.45;4.78;;;;;;;19.58;61.04;97589.88;1664534;85;20981;-75
2021/06/11 07:12:48;;;;;;;4.55;4.10;;;;;;;19.64;60.72;97596.66;1658511;86;21070;-75
2021/06/11 07:15:15;;;;;;;4.83;4.33;;;;;;;19.69;59.28;97587.77;1662841;85;21440;-75
2021/06/11 07:17:42;;;;;;;6.10;3.90;;;;;;;19.67;59.30;97592.37;1686166;84;21050;-75
2021/06/11 07:20:13;;;;;;;5.05;3.90;;;;;;;19.61;58.99;97584.77;1684801;85;20990;-74
2021/06/11 07:22:43;;;;;;;5.15;4.10;;;;;;;19.66;59.39;97587.97;1657391;85;21053;-74
2021/06/11 07:25:10;;;;;;;4.58;4.17;;;;;;;19.70;59.42;97585.91;1658904;85;20993;-74
2021/06/11 07:27:36;;;;;;;6.00;4.30;;;;;;;19.75;59.51;97582.39;1664208;85;21007;-74
2021/06/11 07:30:07;;;;;;;5.28;4.03;;;;;;;19.79;59.69;97575.83;1665842;85;21064;-74
2021/06/11 07:32:34;;;;;;;9.05;5.05;;;;;;;19.83;58.68;97581.34;1641031;86;21431;-74
2021/06/11 07:35:01;;;;;;;4.90;4.40;;;;;;;19.84;58.27;97574.16;1626427;87;21085;-74
2021/06/11 07:37:27;;;;;;;4.40;4.00;;;;;;;19.84;58.76;97578.19;1625734;87;21077;-74
2021/06/11 07:39:54;;;;;;;6.12;4.30;;;;;;;19.86;58.32;97573.06;1625624;88;21396;-73
2021/06/11 07:42:21;;;;;;;5.58;4.12;;;;;;;19.94;58.91;97573.83;1629163;87;21122;-74
2021/06/11 07:44:47;;;;;;;5.37;4.15;;;;;;;20.04;59.02;97571.33;1626184;87;21435;-74
2021/06/11 07:47:14;;;;;;;20.77;15.95;;;;;;;20.15;58.39;97566.48;1629538;87;21014;-73
2021/06/11 07:49:42;;;;;;;17.67;14.03;;;;;;;20.22;58.48;97565.53;1629660;87;21014;-74
2021/06/11 07:52:08;;;;;;;4.62;4.22;;;;;;;20.34;58.17;97566.44;1633234;87;21490;-72
2021/06/11 07:54:35;;;;;;;10.70;4.33;;;;;;;20.35;54.49;97564.97;1629977;87;20966;-73
2021/06/11 07:57:02;;;;;;;6.47;4.20;;;;;;;20.40;56.47;97564.13;1638384;87;21052;-72
2021/06/11 07:59:29;;;;;;;3.75;3.25;;;;;;;20.51;56.99;97565.97;1626256;87;20969;-73
2021/06/11 08:01:55;;;;;;;6.47;4.25;;;;;;;20.60;54.92;97570.28;1613252;88;21055;-74
2021/06/11 08:04:22;;;;;;;4.95;3.72;;;;;;;20.62;54.21;97568.31;1630507;87;21001;-73
2021/06/11 08:06:49;;;;;;;5.95;3.42;;;;;;;20.66;53.40;97557.67;1620441;88;21099;-74
2021/06/11 08:09:15;;;;;;;5.25;3.17;;;;;;;20.71;51.71;97564.43;1656790;87;20999;-74
2021/06/11 08:11:42;;;;;;;4.80;3.70;;;;;;;20.81;51.14;97558.32;1629782;87;21446;-76
2021/06/11 08:14:09;;;;;;;6.87;4.15;;;;;;;20.86;51.31;97560.19;1630061;88;21029;-74
2021/06/11 08:16:36;;;;;;;5.25;3.90;;;;;;;20.93;51.23;97562.75;1630077;87;21457;-74
2021/06/11 08:19:02;;;;;;;4.65;3.70;;;;;;;20.96;50.41;97553.09;1626405;87;21033;-75
2021/06/11 08:21:29;;;;;;;3.80;3.50;;;;;;;20.93;49.89;97555.18;1625387;87;21037;-74
2021/06/11 08:23:55;;;;;;;4.22;3.20;;;;;;;20.98;49.77;97552.98;1604198;88;21069;-75
2021/06/11 08:26:22;;;;;;;4.17;3.40;;;;;;;21.00;51.14;97546.97;1626518;87;20971;-74
2021/06/11 08:28:49;;;;;;;4.62;3.50;;;;;;;21.12;51.45;97557.77;1625962;87;20982;-75
2021/06/11 08:31:16;;;;;;;7.85;3.37;;;;;;;21.21;49.79;97550.25;1625877;88;21018;-75
2021/06/11 08:33:44;;;;;;;6.47;4.28;;;;;;;21.21;50.35;97545.73;1648109;86;20993;-75
2021/06/11 08:36:11;;;;;;;4.65;3.60;;;;;;;21.29;49.81;97553.70;1656137;85;20966;-75
2021/06/11 08:38:37;;;;;;;4.55;3.70;;;;;;;21.35;50.27;97541.07;1655224;87;21088;-75
2021/06/11 08:41:12;;;;;;;8.68;3.87;;;;;;;21.45;49.89;97550.12;1655414;86;20992;-75
2021/06/11 08:43:42;;;;;;;5.92;3.87;;;;;;;21.52;49.09;97546.91;1668795;85;20983;-75
2021/06/11 08:46:10;;;;;;;5.45;4.40;;;;;;;21.63;50.30;97548.22;1667550;85;20961;-74
2021/06/11 08:48:38;;;;;;;7.67;6.87;;;;;;;21.76;50.55;97546.77;1656714;86;21472;-75
2021/06/11 08:51:11;;;;;;;6.87;4.42;;;;;;;21.84;50.27;97540.23;1665552;86;20991;-75
2021/06/11 08:53:38;;;;;;;8.30;4.40;;;;;;;21.95;50.37;97540.69;1662040;85;20965;-75
2021/06/11 08:56:05;;;;;;;5.62;4.22;;;;;;;22.12;50.09;97534.34;1661996;86;21037;-75
2021/06/11 08:58:39;;;;;;;5.80;4.30;;;;;;;22.26;49.98;97537.25;1658191;86;21013;-75
2021/06/11 09:01:07;;;;;;;7.22;4.22;;;;;;;22.32;48.95;97535.36;1659788;85;21565;-75
2021/06/11 09:03:56;;;;;;;4.08;3.67;;;;;;;22.36;49.69;97539.99;1666454;85;20922;-76
2021/06/11 09:06:30;;;;;;;6.25;5.62;;;;;;;22.42;49.11;97538.11;1662370;85;20974;-75
2021/06/11 09:09:01;;;;;;;5.12;4.30;;;;;;;22.41;49.03;97528.30;1661620;85;20988;-76
2021/06/11 09:11:32;;;;;;;3.75;3.45;;;;;;;22.41;48.82;97534.58;1657665;85;20998;-75
2021/06/11 09:14:07;;;;;;;4.05;3.60;;;;;;;22.40;49.04;97531.52;1657290;85;21419;-75
2021/06/11 09:16:52;;;;;;;3.87;3.47;;;;;;;22.38;48.75;97531.29;1657907;86;21399;-75
2021/06/11 09:19:19;;;;;;;5.33;3.50;;;;;;;22.37;49.71;97536.30;1658923;85;20954;-75
2021/06/11 09:21:58;;;;;;;5.10;3.50;;;;;;;22.35;49.92;97527.49;1658930;85;21009;-74
2021/06/11 09:24:31;;;;;;;5.10;3.55;;;;;;;22.33;49.32;97529.48;1657292;85;20991;-75
2021/06/11 09:27:11;;;;;;;34.35;28.83;;;;;;;22.31;49.41;97535.01;1652721;85;20997;-76
2021/06/11 09:29:49;;;;;;;7.90;4.87;;;;;;;22.29;49.68;97525.69;1655397;85;20997;-74
2021/06/11 09:32:28;;;;;;;4.53;3.72;;;;;;;22.31;49.75;97518.81;1630655;86;21004;-74
2021/06/11 09:35:03;;;;;;;3.83;3.50;;;;;;;22.31;50.06;97519.30;1650133;86;21034;-74
2021/06/11 09:37:38;;;;;;;4.58;3.70;;;;;;;22.28;49.29;97520.41;1646359;86;21069;-73
2021/06/11 09:40:11;;;;;;;4.30;3.85;;;;;;;22.21;48.75;97532.22;1642845;86;21459;-77
2021/06/11 09:42:45;;;;;;;5.83;3.70;;;;;;;22.17;48.73;97527.23;1638986;86;21105;-74
2021/06/11 09:45:14;;;;;;;4.35;3.92;;;;;;;22.12;48.49;97521.72;1670510;86;21021;-75
2021/06/11 09:47:51;;;;;;;5.92;4.30;;;;;;;22.10;48.64;97520.14;1664596;86;21522;-72
2021/06/11 09:50:33;;;;;;;6.95;4.60;;;;;;;22.13;48.53;97526.64;1643101;86;21024;-73
2021/06/11 09:53:10;;;;;;;4.70;3.80;;;;;;;22.10;48.57;97526.89;1642513;87;21157;-75
2021/06/11 09:55:46;;;;;;;8.20;3.92;;;;;;;22.07;47.03;97521.73;1643523;87;21039;-74
2021/06/11 09:58:21;;;;;;;6.30;3.98;;;;;;;22.01;47.28;97528.02;1647245;86;21068;-74
2021/06/11 10:00:58;;;;;;;5.37;3.42;;;;;;;21.86;47.84;97529.31;1644211;86;21596;-74
2021/06/11 10:03:31;;;;;;;4.90;4.00;;;;;;;21.83;48.46;97526.86;1647279;86;20968;-74
2021/06/11 10:06:01;;;;;;;6.67;3.72;;;;;;;21.75;48.75;97524.81;1649724;86;21471;-74
2021/06/11 10:08:29;;;;;;;5.45;3.83;;;;;;;21.75;49.05;97521.63;1649835;86;21040;-75
2021/06/11 10:10:57;;;;;;;4.15;3.47;;;;;;;21.75;48.17;97522.98;1644086;87;21545;-74
2021/06/11 10:13:25;;;;;;;4.17;3.12;;;;;;;21.74;46.57;97519.06;1644030;87;21454;-74
2021/06/11 10:15:56;;;;;;;3.60;3.30;;;;;;;21.69;45.91;97519.91;1645986;86;21084;-75
2021/06/11 10:18:23;;;;;;;3.60;3.30;;;;;;;21.68;45.29;97515.02;1644447;86;21100;-74
2021/06/11 10:20:51;;;;;;;6.60;3.17;;;;;;;21.73;45.69;97519.57;1644217;86;21442;-73
2021/06/11 10:23:23;;;;;;;3.58;3.27;;;;;;;21.71;46.11;97511.21;1644089;87;21111;-74
2021/06/11 10:25:54;;;;;;;5.17;3.60;;;;;;;21.72;46.44;97508.39;1643956;87;21080;-73
2021/06/11 10:28:30;;;;;;;4.25;3.35;;;;;;;21.71;45.33;97505.34;1649231;86;21012;-73
2021/06/11 10:31:10;;;;;;;4.47;3.70;;;;;;;21.74;45.92;97506.92;1654845;86;21039;-74
2021/06/11 10:33:52;;;;;;;5.17;4.15;;;;;;;21.83;46.77;97502.11;1635872;85;21081;-74
2021/06/11 10:36:34;;;;;;;6.22;4.12;;;;;;;21.82;50.76;97504.45;1665753;85;20993;-73
2021/06/11 10:39:16;;;;;;;5.87;3.90;;;;;;;21.72;52.86;97507.05;1672468;85;21026;-74
2021/06/11 10:42:07;;;;;;;6.25;4.00;;;;;;;21.63;53.17;97509.13;1658221;86;21020;-74
2021/06/11 10:44:50;;;;;;;6.53;3.95;;;;;;;21.50;53.21;97505.25;1658838;85;21034;-74
2021/06/11 10:47:21;;;;;;;6.20;4.50;;;;;;;21.37;54.18;97508.10;1659062;85;21028;-73
2021/06/11 10:50:03;;;;;;;5.58;4.10;;;;;;;21.18;56.57;97515.49;1658026;86;21053;-75
2021/06/11 10:52:49;;;;;;;6.75;4.78;;;;;;;20.74;58.86;97513.98;1658370;86;20953;-75
2021/06/11 10:55:21;;;;;;;6.70;4.40;;;;;;;20.60;58.67;97515.96;1658309;85;21441;-74
2021/06/11 10:57:57;;;;;;;7.62;4.40;;;;;;;20.26;60.83;97510.52;1657567;86;21170;-74
2021/06/11 11:00:32;;;;;;;6.83;4.40;;;;;;;20.18;60.96;97504.39;1658688;86;21056;-74
2021/06/11 11:03:02;;;;;;;5.62;4.17;;;;;;;20.69;59.64;97503.60;1658481;86;21076;-75
2021/06/11 11:05:33;;;;;;;4.78;4.25;;;;;;;21.25;58.95;97501.03;1658526;86;21465;-75
2021/06/11 11:08:06;;;;;;;4.92;4.30;;;;;;;21.85;56.66;97501.47;1657612;86;20970;-75
2021/06/11 11:10:48;;;;;;;5.28;3.70;;;;;;;22.18;55.48;97510.91;1658502;86;21013;-74
2021/06/11 11:13:20;;;;;;;4.70;3.98;;;;;;;22.04;53.92;97512.06;1658630;86;21542;-74
2021/06/11 11:15:51;;;;;;;4.87;4.00;;;;;;;21.68;55.44;97509.63;1671625;85;21479;-75
2021/06/11 11:18:23;;;;;;;6.37;4.00;;;;;;;21.59;55.83;97514.44;1676317;85;21107;-74
2021/06/11 11:20:52;;;;;;;3.90;3.60;;;;;;;21.74;55.78;97514.53;1660987;85;21054;-74
2021/06/11 11:23:21;;;;;;;5.60;3.30;;;;;;;22.32;53.54;97511.06;1658716;86;21414;-73
2021/06/11 11:25:48;;;;;;;4.20;3.12;;;;;;;23.03;51.52;97501.85;1658914;85;21112;-74
2021/06/11 11:28:16;;;;;;;8.18;2.83;;;;;;;23.70;50.04;97495.42;1657992;85;21006;-72
2021/06/11 11:30:45;;;;;;;4.42;2.90;;;;;;;23.66;48.15;97498.05;1657943;85;21423;-74
2021/06/11 11:33:14;;;;;;;5.03;3.25;;;;;;;23.27;48.37;97492.05;1652969;86;21065;-74
2021/06/11 11:35:46;;;;;;;4.00;2.85;;;;;;;23.14;48.72;97488.73;1626019;87;21032;-74
2021/06/11 11:38:14;;;;;;;3.17;2.70;;;;;;;23.74;46.19;97493.28;1625794;88;21002;-73
2021/06/11 11:40:42;;;;;;;3.20;2.62;;;;;;;24.02;44.09;97489.38;1627259;87;21024;-74
2021/06/11 11:43:09;;;;;;;4.17;2.40;;;;;;;24.50;41.78;97486.77;1625071;87;21057;-73